Time;durP1;ratioP1;P1;durP2;ratioP2;P2;SDS_P1;SDS_P2;PMS_P1;PMS_P2;Temp;Humidity;BMP_temperature;BMP_pressure;BME280_temperature;BME280_humidity;BME280_pressure;Samples;Min_cycle;Max_cycle;Signal;HPM_P1;HPM_P2
2021/03/25 00:01:23;;;;;;;56.50;31.50;;;;;;;4.33;100.00;101296.03;5011570;28;20254;-68
2021/03/25 00:03:54;;;;;;;51.33;28.90;;;;;;;4.39;100.00;101290.59;4995647;28;20237;-68
2021/03/25 00:06:20;;;;;;;59.97;32.90;;;;;;;4.41;100.00;101291.19;5011471;28;20221;-68
2021/03/25 00:08:48;;;;;;;63.20;34.17;;;;;;;4.45;100.00;101284.38;5011991;28;20709;-69
2021/03/25 00:11:13;;;;;;;55.67;30.83;;;;;;;4.45;100.00;101288.91;4994677;28;20712;-68
2021/03/25 00:13:39;;;;;;;58.57;32.27;;;;;;;4.34;100.00;101286.91;4978197;28;20185;-68
2021/03/25 00:16:05;;;;;;;51.40;30.10;;;;;;;4.32;100.00;101292.53;5010704;28;20232;-68
2021/03/25 00:18:31;;;;;;;52.10;30.33;;;;;;;4.28;100.00;101287.78;4994919;28;20193;-69
2021/03/25 00:20:57;;;;;;;54.77;31.50;;;;;;;4.25;100.00;101282.84;4994647;28;20304;-68
2021/03/25 00:23:23;;;;;;;57.10;31.83;;;;;;;4.26;100.00;101284.47;5010282;28;20287;-68
2021/03/25 00:25:48;;;;;;;69.93;36.90;;;;;;;4.13;100.00;101273.81;4978496;28;20228;-68
2021/03/25 00:28:15;;;;;;;370.53;162.77;;;;;;;4.00;100.00;101281.13;5015034;28;20321;-68
2021/03/25 00:30:40;;;;;;;94.90;47.80;;;;;;;4.04;100.00;101279.66;4994256;28;20229;-68
2021/03/25 00:33:07;;;;;;;73.83;40.43;;;;;;;3.93;100.00;101273.09;5011253;28;20260;-69
2021/03/25 00:35:33;;;;;;;96.53;48.17;;;;;;;3.94;100.00;101274.75;4994484;28;20216;-68
2021/03/25 00:38:01;;;;;;;93.23;45.07;;;;;;;3.98;100.00;101277.84;5010868;28;20196;-67
2021/03/25 00:40:30;;;;;;;77.77;39.33;;;;;;;4.02;100.00;101279.06;4994708;28;20251;-68
2021/03/25 00:42:55;;;;;;;60.93;34.83;;;;;;;3.96;100.00;101278.03;4978612;28;20275;-68
2021/03/25 00:45:37;;;;;;;59.20;32.00;;;;;;;4.04;100.00;101279.66;5010245;28;20185;-68
2021/03/25 00:48:05;;;;;;;57.53;31.33;;;;;;;4.00;100.00;101283.81;5011193;28;20842;-67
2021/03/25 00:50:36;;;;;;;55.27;30.20;;;;;;;3.95;100.00;101267.50;5010566;28;20251;-68
2021/03/25 00:53:02;;;;;;;53.73;29.00;;;;;;;3.93;100.00;101272.28;5010172;28;20259;-68
2021/03/25 00:55:28;;;;;;;51.60;28.27;;;;;;;3.89;100.00;101271.88;4994018;28;20228;-68
2021/03/25 00:57:53;;;;;;;53.80;29.57;;;;;;;3.90;100.00;101270.00;4982940;28;20185;-69
2021/03/25 01:00:26;;;;;;;57.80;30.27;;;;;;;3.80;100.00;101283.09;4994830;28;20239;-68
2021/03/25 01:02:52;;;;;;;52.07;28.53;;;;;;;3.75;100.00;101274.84;5013050;28;20224;-68
2021/03/25 01:05:18;;;;;;;58.23;31.20;;;;;;;3.86;100.00;101271.47;4981617;28;20267;-69
2021/03/25 01:07:44;;;;;;;53.27;29.70;;;;;;;3.79;100.00;101276.06;4999023;28;20173;-70
2021/03/25 01:10:16;;;;;;;54.03;29.17;;;;;;;3.68;100.00;101276.75;4998513;28;20189;-70
2021/03/25 01:12:41;;;;;;;58.83;30.67;;;;;;;3.72;100.00;101269.91;4995546;28;20177;-68
2021/03/25 01:15:13;;;;;;;55.43;29.83;;;;;;;3.54;100.00;101287.75;4978567;28;20551;-68
2021/03/25 01:17:45;;;;;;;55.60;30.40;;;;;;;3.58;100.00;101276.34;5011084;28;20667;-69
2021/03/25 01:20:17;;;;;;;56.57;30.77;;;;;;;3.59;100.00;101275.31;5010608;28;20188;-68
2021/03/25 01:22:43;;;;;;;55.77;30.30;;;;;;;3.52;100.00;101282.56;5010464;28;20702;-69
2021/03/25 01:25:09;;;;;;;60.03;30.70;;;;;;;3.50;100.00;101273.91;4994397;28;20204;-67
2021/03/25 01:27:36;;;;;;;61.37;31.23;;;;;;;3.47;100.00;101282.38;4998779;28;20192;-68
2021/03/25 01:30:03;;;;;;;60.33;31.87;;;;;;;3.52;100.00;101274.53;5012134;28;20189;-69
2021/03/25 01:32:30;;;;;;;59.73;30.87;;;;;;;3.56;100.00;101273.06;4993745;28;20229;-70
2021/03/25 01:34:58;;;;;;;59.13;30.53;;;;;;;3.48;100.00;101284.03;4994577;28;20219;-68
2021/03/25 01:37:24;;;;;;;59.83;29.17;;;;;;;3.48;100.00;101273.31;4994126;28;20212;-66
2021/03/25 01:40:07;;;;;;;51.57;27.60;;;;;;;3.57;100.00;101276.56;4995650;28;20634;-68
2021/03/25 01:42:35;;;;;;;51.43;27.80;;;;;;;3.40;100.00;101274.56;4993230;28;20713;-69
2021/03/25 01:45:22;;;;;;;51.43;27.70;;;;;;;3.28;100.00;101277.06;4978483;28;20610;-68
2021/03/25 01:47:49;;;;;;;51.07;28.07;;;;;;;3.25;100.00;101272.13;4996601;28;20217;-68
2021/03/25 01:50:18;;;;;;;51.47;27.80;;;;;;;3.37;100.00;101283.03;4993512;28;20193;-69
2021/03/25 01:53:07;;;;;;;52.73;27.80;;;;;;;3.41;100.00;101287.78;4993492;28;20655;-69
2021/03/25 01:55:45;;;;;;;55.20;28.57;;;;;;;3.35;100.00;101293.16;5013163;28;20227;-68
2021/03/25 01:58:13;;;;;;;54.03;28.73;;;;;;;3.29;100.00;101284.06;4993974;28;20184;-68
2021/03/25 02:00:47;;;;;;;59.13;28.90;;;;;;;3.44;100.00;101285.50;5009609;28;20225;-69
2021/03/25 02:03:39;;;;;;;54.03;28.17;;;;;;;3.49;100.00;101288.34;4995174;28;20216;-69
2021/03/25 02:06:42;;;;;;;51.77;28.03;;;;;;;3.48;100.00;101289.41;4981723;28;20232;-69
2021/03/25 02:09:19;;;;;;;53.67;27.63;;;;;;;3.40;100.00;101283.44;4995546;28;20185;-69
2021/03/25 02:12:05;;;;;;;54.43;28.63;;;;;;;3.54;100.00;101291.25;4994018;28;20303;-68
2021/03/25 02:15:08;;;;;;;50.73;29.10;;;;;;;3.75;100.00;101284.75;5010932;28;20280;-68
2021/03/25 02:17:42;;;;;;;50.17;27.70;;;;;;;3.62;100.00;101282.94;5013226;28;20932;-69
2021/03/25 02:21:19;;;;;;;46.80;25.87;;;;;;;3.52;100.00;101287.13;5007565;28;20244;-69
2021/03/25 02:24:13;;;;;;;48.57;26.30;;;;;;;3.48;100.00;101284.03;4997885;28;20220;-68
2021/03/25 02:26:52;;;;;;;49.27;25.47;;;;;;;3.54;100.00;101283.19;5017783;28;20222;-69
2021/03/25 02:29:37;;;;;;;46.50;26.27;;;;;;;3.51;100.00;101283.59;4998274;28;20280;-69
2021/03/25 02:32:09;;;;;;;46.17;25.67;;;;;;;3.50;100.00;101281.97;4998205;28;20233;-68
2021/03/25 02:34:37;;;;;;;48.67;26.30;;;;;;;3.42;100.00;101284.03;4981591;28;20181;-68
2021/03/25 02:37:10;;;;;;;47.37;25.93;;;;;;;3.40;100.00;101277.25;4997395;28;20576;-69
2021/03/25 02:40:05;;;;;;;46.90;26.30;;;;;;;3.48;100.00;101281.34;4982996;28;20658;-69
2021/03/25 02:42:59;;;;;;;49.30;27.63;;;;;;;3.37;100.00;101269.59;5012250;28;20233;-69
2021/03/25 02:45:27;;;;;;;47.53;27.27;;;;;;;3.35;100.00;101282.41;4997700;28;20686;-68
2021/03/25 02:47:56;;;;;;;54.33;28.97;;;;;;;3.27;100.00;101271.91;4981490;28;20185;-69
2021/03/25 02:50:24;;;;;;;48.27;27.50;;;;;;;3.37;100.00;101275.81;4996874;28;20192;-69
2021/03/25 02:52:58;;;;;;;52.17;29.03;;;;;;;3.27;100.00;101275.41;4996675;28;20177;-69
2021/03/25 02:55:24;;;;;;;52.43;29.17;;;;;;;3.42;100.00;101272.50;4980765;28;20304;-69
2021/03/25 02:58:05;;;;;;;56.60;29.60;;;;;;;3.35;100.00;101275.22;5002593;28;20239;-68
2021/03/25 03:00:40;;;;;;;57.33;30.37;;;;;;;3.39;100.00;101272.91;4997833;28;20220;-69
2021/03/25 03:03:13;;;;;;;54.97;29.07;;;;;;;3.35;100.00;101274.34;4980888;28;20852;-68
2021/03/25 03:06:16;;;;;;;54.47;27.70;;;;;;;3.35;100.00;101271.69;5002657;28;20251;-68
2021/03/25 03:08:46;;;;;;;53.67;28.00;;;;;;;3.22;100.00;101272.56;4998257;28;20183;-70
2021/03/25 03:11:19;;;;;;;55.03;28.53;;;;;;;3.17;100.00;101276.91;4996889;28;20224;-68
2021/03/25 03:13:53;;;;;;;56.77;28.77;;;;;;;3.20;100.00;101284.50;4997570;28;20185;-69
2021/03/25 03:16:26;;;;;;;52.90;28.27;;;;;;;3.13;100.00;101283.69;4983787;28;20705;-69
2021/03/25 03:18:56;;;;;;;55.77;28.23;;;;;;;3.20;100.00;101279.16;5017133;28;20252;-68
2021/03/25 03:21:46;;;;;;;55.43;29.37;;;;;;;3.01;100.00;101274.66;4981026;28;20221;-67
2021/03/25 03:24:17;;;;;;;57.80;29.77;;;;;;;3.11;100.00;101264.31;4998534;28;20630;-70
2021/03/25 03:27:14;;;;;;;55.47;28.33;;;;;;;2.97;100.00;101268.06;4986582;28;20212;-70
2021/03/25 03:29:46;;;;;;;56.10;28.90;;;;;;;2.99;100.00;101270.53;4967197;28;20208;-70
2021/03/25 03:32:42;;;;;;;49.50;28.10;;;;;;;2.90;100.00;101277.97;4995707;28;20316;-68
2021/03/25 03:35:17;;;;;;;54.43;27.73;;;;;;;2.96;100.00;101269.06;4999336;28;20275;-69
2021/03/25 03:37:46;;;;;;;56.70;29.70;;;;;;;2.89;100.00;101270.94;4980940;28;20181;-68
2021/03/25 03:40:20;;;;;;;57.47;28.97;;;;;;;2.82;100.00;101267.47;4981559;28;20181;-68
2021/03/25 03:42:46;;;;;;;53.77;29.17;;;;;;;2.76;100.00;101268.25;4995357;28;20587;-68
2021/03/25 03:45:17;;;;;;;55.53;29.60;;;;;;;2.83;100.00;101266.41;4980718;28;20181;-69
2021/03/25 03:47:50;;;;;;;54.37;27.77;;;;;;;2.65;100.00;101283.34;4978489;28;20330;-68
2021/03/25 03:50:28;;;;;;;55.03;28.37;;;;;;;2.72;100.00;101272.41;4999036;28;20271;-68
2021/03/25 03:52:56;;;;;;;50.90;26.77;;;;;;;2.71;100.00;101268.06;5015758;28;20242;-69
2021/03/25 03:55:22;;;;;;;51.73;28.10;;;;;;;2.81;100.00;101267.66;4999734;28;20716;-68
2021/03/25 03:57:48;;;;;;;52.23;28.20;;;;;;;2.75;100.00;101269.31;5004231;28;20235;-69
2021/03/25 04:00:28;;;;;;;55.87;28.03;;;;;;;2.72;100.00;101272.41;5013516;28;20177;-70
2021/03/25 04:03:14;;;;;;;53.77;28.00;;;;;;;2.73;100.00;101268.69;5011965;28;20566;-68
2021/03/25 04:06:28;;;;;;;58.53;27.17;;;;;;;2.79;100.00;101259.81;4963133;28;20286;-69
2021/03/25 04:09:22;;;;;;;53.67;26.97;;;;;;;2.80;100.00;101261.47;4994768;28;20209;-68
2021/03/25 04:12:23;;;;;;;52.47;27.40;;;;;;;2.90;100.00;101264.56;4981615;28;20233;-68
2021/03/25 04:15:12;;;;;;;54.97;26.67;;;;;;;2.87;100.00;101264.97;4994648;28;20251;-69
2021/03/25 04:18:06;;;;;;;50.37;27.77;;;;;;;2.95;100.00;101263.91;5011045;28;20700;-70
2021/03/25 04:21:04;;;;;;;54.87;27.87;;;;;;;2.84;100.00;101267.22;4989862;28;20718;-69
2021/03/25 04:23:32;;;;;;;50.80;26.67;;;;;;;2.54;100.00;101270.53;4994494;28;20213;-68
2021/03/25 04:26:18;;;;;;;51.27;27.30;;;;;;;2.63;100.00;101258.59;4996095;28;20213;-68
2021/03/25 04:28:52;;;;;;;45.83;25.93;;;;;;;2.66;100.00;101267.03;5002350;28;20200;-68
2021/03/25 04:31:18;;;;;;;50.70;26.37;;;;;;;2.61;100.00;101271.38;4978429;28;20714;-68
2021/03/25 04:33:48;;;;;;;46.83;26.23;;;;;;;2.60;100.00;101270.56;4969375;28;20216;-68
2021/03/25 04:36:22;;;;;;;47.07;25.23;;;;;;;2.57;100.00;101267.47;4993786;28;20308;-69
2021/03/25 04:38:48;;;;;;;51.73;28.90;;;;;;;2.46;100.00;101268.06;4994642;28;20261;-69
2021/03/25 04:41:14;;;;;;;44.93;26.83;;;;;;;2.50;100.00;101275.50;4961204;28;20228;-68
2021/03/25 04:43:39;;;;;;;51.60;26.90;;;;;;;2.64;100.00;101263.75;4993357;28;20220;-68
2021/03/25 04:46:20;;;;;;;49.67;27.30;;;;;;;2.86;100.00;101266.00;4977226;28;20259;-69
2021/03/25 04:48:48;;;;;;;50.33;27.87;;;;;;;3.03;100.00;101267.22;5009890;28;20184;-68
2021/03/25 04:51:21;;;;;;;50.93;28.47;;;;;;;3.05;100.00;101280.44;5009429;28;20221;-68
2021/03/25 04:53:47;;;;;;;52.70;28.70;;;;;;;3.02;100.00;101276.28;4990052;28;20192;-68
2021/03/25 04:56:22;;;;;;;51.37;27.47;;;;;;;3.00;100.00;101272.97;4990401;28;20215;-68
2021/03/25 04:58:59;;;;;;;51.30;27.30;;;;;;;2.86;100.00;101271.38;4977061;28;20260;-67
2021/03/25 05:01:27;;;;;;;49.57;26.23;;;;;;;2.69;100.00;101272.81;4974625;28;20228;-69
2021/03/25 05:04:03;;;;;;;51.20;26.57;;;;;;;2.67;100.00;101275.91;4989959;28;20320;-68
2021/03/25 05:06:56;;;;;;;48.23;25.60;;;;;;;2.65;100.00;101280.66;4976606;28;20227;-67
2021/03/25 05:09:22;;;;;;;51.30;26.30;;;;;;;2.68;100.00;101271.16;4995399;28;20275;-68
2021/03/25 05:11:48;;;;;;;53.07;27.73;;;;;;;2.80;100.00;101271.34;4991369;28;20257;-68
2021/03/25 05:14:19;;;;;;;49.27;25.20;;;;;;;2.53;100.00;101285.81;4993631;28;20177;-69
2021/03/25 05:16:58;;;;;;;50.30;26.90;;;;;;;2.47;100.00;101280.44;4992711;28;20231;-69
2021/03/25 05:19:56;;;;;;;48.47;27.07;;;;;;;2.67;100.00;101277.56;5009906;28;20180;-68
2021/03/25 05:22:35;;;;;;;53.50;26.73;;;;;;;2.74;100.00;101273.00;5009331;28;20235;-70
2021/03/25 05:25:11;;;;;;;46.33;25.67;;;;;;;2.76;100.00;101281.66;4993569;28;20676;-69
2021/03/25 05:27:37;;;;;;;54.17;26.77;;;;;;;2.52;100.00;101283.34;5013658;28;20200;-68
2021/03/25 05:30:06;;;;;;;48.87;26.10;;;;;;;2.70;100.00;101282.50;5010464;28;20189;-69
2021/03/25 05:32:33;;;;;;;49.07;26.70;;;;;;;2.73;100.00;101295.50;4991926;28;20217;-68
2021/03/25 05:35:00;;;;;;;53.77;27.53;;;;;;;2.76;100.00;101292.41;4977293;28;20212;-68
2021/03/25 05:37:31;;;;;;;49.77;27.30;;;;;;;2.64;100.00;101300.44;4992309;28;20224;-67
2021/03/25 05:40:00;;;;;;;52.07;27.37;;;;;;;2.85;100.00;101285.78;5006881;28;20300;-67
2021/03/25 05:42:29;;;;;;;50.00;27.47;;;;;;;2.87;100.00;101289.09;5007497;28;20236;-68
2021/03/25 05:45:32;;;;;;;46.47;25.87;;;;;;;2.81;100.00;101294.47;4977610;28;20189;-67
2021/03/25 05:48:16;;;;;;;46.77;25.60;;;;;;;2.81;100.00;101289.94;5009955;28;20217;-68
2021/03/25 05:50:59;;;;;;;48.73;27.37;;;;;;;2.91;100.00;101290.34;5008607;28;20248;-70
2021/03/25 05:53:37;;;;;;;49.70;26.03;;;;;;;3.08;100.00;101303.13;4976498;28;20185;-68
2021/03/25 05:56:08;;;;;;;52.57;27.33;;;;;;;3.30;100.00;101306.41;5011958;28;20233;-66
2021/03/25 05:58:52;;;;;;;45.87;27.63;;;;;;;3.30;100.00;101311.75;5011134;28;20176;-69
2021/03/25 06:01:27;;;;;;;46.13;27.37;;;;;;;3.44;100.00;101298.06;5009036;28;20224;-67
2021/03/25 06:04:05;;;;;;;47.07;27.37;;;;;;;3.45;100.00;101305.94;5008078;28;20771;-67
2021/03/25 06:06:42;;;;;;;53.13;27.83;;;;;;;3.62;100.00;101312.47;5012028;28;20236;-66
2021/03/25 06:09:12;;;;;;;50.80;28.63;;;;;;;3.65;100.00;101305.88;5009966;28;20181;-67
2021/03/25 06:12:10;;;;;;;49.90;28.57;;;;;;;3.78;100.00;101306.66;4991893;28;20239;-68
2021/03/25 06:14:48;;;;;;;48.00;28.50;;;;;;;3.81;100.00;101308.06;5001644;28;20201;-67
2021/03/25 06:17:34;;;;;;;47.90;29.23;;;;;;;3.82;100.00;101319.44;5005207;28;20217;-67
2021/03/25 06:20:06;;;;;;;49.07;29.33;;;;;;;4.01;100.00;101312.31;5025841;28;20188;-67
2021/03/25 06:22:54;;;;;;;47.20;28.30;;;;;;;4.12;100.00;101314.34;5021075;28;20699;-69
2021/03/25 06:25:41;;;;;;;51.20;27.97;;;;;;;4.11;100.00;101318.09;4986041;28;20251;-68
2021/03/25 06:28:32;;;;;;;50.67;29.10;;;;;;;4.17;100.00;101311.84;5013888;28;20229;-67
2021/03/25 06:31:24;;;;;;;47.10;28.67;;;;;;;4.16;100.00;101315.56;4972259;28;20607;-67
2021/03/25 06:34:02;;;;;;;50.37;28.67;;;;;;;4.17;100.00;101306.47;4974556;28;20612;-67
2021/03/25 06:36:50;;;;;;;48.23;27.77;;;;;;;4.24;100.00;101319.63;4988794;28;20232;-67
2021/03/25 06:39:54;;;;;;;45.90;27.37;;;;;;;4.20;100.00;101316.78;4978156;28;20289;-68
2021/03/25 06:42:46;;;;;;;43.83;27.50;;;;;;;4.32;100.00;101319.41;4987714;28;20293;-68
2021/03/25 06:45:20;;;;;;;45.93;25.80;;;;;;;4.34;100.00;101321.84;4988475;28;20190;-68
2021/03/25 06:47:58;;;;;;;43.83;25.30;;;;;;;4.46;100.00;101320.97;4972928;28;20208;-67
2021/03/25 06:50:26;;;;;;;41.87;25.47;;;;;;;4.50;100.00;101327.53;4941079;28;20185;-68
2021/03/25 06:52:55;;;;;;;46.20;25.93;;;;;;;4.57;100.00;101331.03;4972077;28;20182;-68
2021/03/25 06:55:26;;;;;;;45.13;26.70;;;;;;;4.82;100.00;101334.59;4955982;28;20186;-69
2021/03/25 06:58:00;;;;;;;40.60;25.50;;;;;;;5.03;100.00;101332.31;4972811;28;20636;-69
2021/03/25 07:00:29;;;;;;;44.77;27.63;;;;;;;5.29;100.00;101332.91;4957307;28;20182;-69
2021/03/25 07:02:57;;;;;;;46.40;28.20;;;;;;;5.50;100.00;101335.19;4990552;28;20213;-67
2021/03/25 07:05:28;;;;;;;50.03;29.13;;;;;;;5.72;100.00;101329.16;4991734;28;20217;-67
2021/03/25 07:07:59;;;;;;;51.63;30.00;;;;;;;5.90;100.00;101338.09;4960996;28;20190;-69
2021/03/25 07:10:27;;;;;;;49.90;30.07;;;;;;;6.08;100.00;101335.38;4959436;28;20647;-68
2021/03/25 07:12:58;;;;;;;53.03;30.20;;;;;;;6.03;100.00;101335.22;4976038;28;20178;-68
2021/03/25 07:15:27;;;;;;;56.37;31.90;;;;;;;6.19;100.00;101337.28;4959968;28;20860;-67
2021/03/25 07:17:55;;;;;;;55.13;32.53;;;;;;;6.49;100.00;101338.16;4968600;28;20301;-68
2021/03/25 07:20:37;;;;;;;53.47;33.30;;;;;;;6.68;100.00;101344.06;4998849;28;20221;-68
2021/03/25 07:23:12;;;;;;;50.43;32.07;;;;;;;6.79;100.00;101335.16;4991575;28;20749;-69
2021/03/25 07:25:45;;;;;;;58.33;32.73;;;;;;;6.98;100.00;101339.47;4991832;28;20229;-68
2021/03/25 07:28:22;;;;;;;53.63;32.57;;;;;;;7.16;100.00;101336.63;4993498;28;20734;-68
2021/03/25 07:30:50;;;;;;;58.20;33.40;;;;;;;7.41;100.00;101335.38;4960572;28;20236;-68
2021/03/25 07:33:18;;;;;;;50.90;32.87;;;;;;;7.61;100.00;101325.84;4959575;28;20597;-69
2021/03/25 07:35:50;;;;;;;52.93;33.53;;;;;;;7.78;100.00;101332.16;4959819;28;20229;-71
2021/03/25 07:38:38;;;;;;;48.07;30.23;;;;;;;7.95;100.00;101338.47;4960676;28;20186;-69
2021/03/25 07:41:20;;;;;;;51.30;32.43;;;;;;;8.20;100.00;101327.13;4991743;28;20225;-68
2021/03/25 07:43:58;;;;;;;50.20;32.40;;;;;;;8.38;100.00;101329.66;4990587;28;20221;-69
2021/03/25 07:46:40;;;;;;;52.17;31.97;;;;;;;8.57;100.00;101328.41;4992639;28;20857;-68
2021/03/25 07:49:09;;;;;;;47.23;31.00;;;;;;;8.76;100.00;101335.28;4985417;28;20590;-69
2021/03/25 07:51:48;;;;;;;47.83;31.60;;;;;;;8.76;100.00;101348.81;5012813;28;20282;-69
2021/03/25 07:54:37;;;;;;;49.03;30.80;;;;;;;9.13;100.00;101335.38;5012381;28;20666;-69
2021/03/25 07:57:14;;;;;;;48.93;31.10;;;;;;;9.32;100.00;101332.19;5011772;28;20255;-69
2021/03/25 07:59:43;;;;;;;46.03;29.87;;;;;;;9.38;100.00;101328.47;5011279;28;20185;-68
2021/03/25 08:02:41;;;;;;;38.27;26.83;;;;;;;9.52;100.00;101346.00;4990006;28;20225;-70
2021/03/25 08:05:28;;;;;;;41.77;25.27;;;;;;;9.68;98.27;101340.56;4980251;28;20198;-70
2021/03/25 08:07:56;;;;;;;43.60;29.03;;;;;;;9.82;99.59;101347.28;4997623;28;20313;-68
2021/03/25 08:10:39;;;;;;;39.70;26.73;;;;;;;10.12;97.02;101345.00;4974305;28;20198;-70
2021/03/25 08:13:27;;;;;;;31.10;20.43;;;;;;;10.05;93.07;101342.50;4989821;28;20186;-67
2021/03/25 08:16:05;;;;;;;31.80;20.47;;;;;;;10.46;89.17;101350.06;4991715;28;20304;-67
2021/03/25 08:18:51;;;;;;;26.83;19.10;;;;;;;10.23;91.50;101354.91;5001041;28;20191;-68
2021/03/25 08:21:39;;;;;;;28.83;20.10;;;;;;;10.46;89.81;101341.91;5000403;28;20225;-66
2021/03/25 08:24:19;;;;;;;29.37;20.27;;;;;;;10.27;90.97;101345.19;5027810;28;20232;-67
2021/03/25 08:26:57;;;;;;;27.70;18.43;;;;;;;10.49;89.67;101350.38;5009217;28;20248;-68
2021/03/25 08:29:35;;;;;;;30.73;20.37;;;;;;;10.81;89.01;101345.81;5011727;28;20185;-68
2021/03/25 08:32:13;;;;;;;26.20;17.47;;;;;;;10.47;86.34;101347.06;5020757;28;20219;-68
2021/03/25 08:34:50;;;;;;;27.00;17.53;;;;;;;10.78;86.65;101349.84;5018059;28;20286;-68
2021/03/25 08:37:34;;;;;;;26.00;17.13;;;;;;;10.96;86.98;101345.94;5010183;28;20209;-68
2021/03/25 08:40:01;;;;;;;26.27;16.63;;;;;;;11.11;84.96;101354.25;5026439;28;20319;-69
2021/03/25 08:42:36;;;;;;;21.97;15.73;;;;;;;11.22;81.02;101349.44;5008544;28;21139;-69
2021/03/25 08:45:16;;;;;;;25.53;18.97;;;;;;;11.13;82.81;101352.09;5030820;28;20307;-67
2021/03/25 08:47:56;;;;;;;24.20;17.70;;;;;;;11.31;82.03;101349.78;4993264;28;20181;-70
2021/03/25 08:50:27;;;;;;;24.47;15.73;;;;;;;11.59;80.57;101344.84;5003112;28;20197;-69
2021/03/25 08:52:53;;;;;;;24.57;15.07;;;;;;;11.56;79.29;101348.13;5002934;28;20189;-68
2021/03/25 08:55:33;;;;;;;20.37;14.80;;;;;;;11.81;78.72;101351.00;5016921;28;20271;-69
2021/03/25 08:58:17;;;;;;;22.20;14.97;;;;;;;12.20;76.10;101340.31;4997631;28;20246;-68
2021/03/25 09:00:44;;;;;;;21.23;14.13;;;;;;;12.15;74.69;101343.00;4996857;28;20220;-67
2021/03/25 09:03:27;;;;;;;22.27;15.63;;;;;;;12.21;75.98;101350.09;4979814;28;20220;-68
2021/03/25 09:05:57;;;;;;;23.43;16.07;;;;;;;12.30;75.49;101345.78;4977950;28;20209;-69
2021/03/25 09:08:23;;;;;;;21.00;15.10;;;;;;;12.88;74.62;101351.72;5014680;28;20181;-68
2021/03/25 09:10:56;;;;;;;22.57;16.40;;;;;;;13.06;71.63;101345.75;5003820;28;20773;-69
2021/03/25 09:13:26;;;;;;;26.43;17.03;;;;;;;12.85;71.25;101344.88;5008618;28;20185;-69
2021/03/25 09:15:58;;;;;;;28.97;16.20;;;;;;;13.00;69.65;101346.81;4993013;28;20847;-68
2021/03/25 09:18:28;;;;;;;21.20;14.40;;;;;;;12.63;69.97;101339.91;4978109;28;20181;-68
2021/03/25 09:20:55;;;;;;;21.73;14.00;;;;;;;12.92;70.96;101341.91;4992791;28;20271;-69
2021/03/25 09:23:35;;;;;;;21.93;16.17;;;;;;;13.19;68.34;101340.59;5001686;28;20213;-69
2021/03/25 09:26:12;;;;;;;23.33;15.63;;;;;;;13.18;69.46;101337.00;5027990;28;20228;-67
2021/03/25 09:29:03;;;;;;;22.97;16.00;;;;;;;13.43;69.07;101330.75;5029211;28;20186;-69
2021/03/25 09:31:36;;;;;;;23.33;16.23;;;;;;;13.13;70.33;101330.72;5028470;28;20232;-69
2021/03/25 09:34:10;;;;;;;21.77;15.87;;;;;;;13.29;69.21;101326.94;4996683;28;20267;-69
2021/03/25 09:36:36;;;;;;;22.93;14.47;;;;;;;13.12;70.37;101329.13;5029743;28;20717;-68
2021/03/25 09:39:04;;;;;;;19.33;13.93;;;;;;;13.31;71.39;101317.38;5012443;28;20184;-68
2021/03/25 09:41:35;;;;;;;21.33;13.83;;;;;;;13.12;68.94;101312.75;5029648;28;20255;-70
2021/03/25 09:44:15;;;;;;;20.57;13.27;;;;;;;12.82;70.12;101318.19;5028502;28;20235;-69
2021/03/25 09:46:53;;;;;;;19.03;13.53;;;;;;;13.00;69.09;101309.44;5029674;28;20625;-70
2021/03/25 09:49:18;;;;;;;17.53;13.30;;;;;;;12.89;69.20;101313.28;5012610;28;20206;-70
2021/03/25 09:51:47;;;;;;;18.27;13.13;;;;;;;13.58;67.38;101301.50;5020626;28;20728;-71
2021/03/25 09:54:26;;;;;;;16.63;11.20;;;;;;;13.26;66.30;101308.38;4972499;28;20192;-71
2021/03/25 09:57:25;;;;;;;16.37;11.73;;;;;;;13.38;65.53;101308.91;4995510;28;20240;-72
2021/03/25 09:59:53;;;;;;;17.73;11.80;;;;;;;13.23;67.36;101306.19;5028790;28;20180;-69
2021/03/25 10:02:37;;;;;;;18.27;12.37;;;;;;;13.65;65.56;101302.88;4987920;28;20226;-72
2021/03/25 10:05:24;;;;;;;16.00;11.13;;;;;;;13.82;64.45;101295.16;5024048;28;20234;-71
2021/03/25 10:07:58;;;;;;;14.47;8.43;;;;;;;13.72;63.63;101308.84;5012324;28;20207;-72
2021/03/25 10:10:49;;;;;;;9.90;7.57;;;;;;;13.48;64.74;101305.09;4992971;28;20211;-71
2021/03/25 10:13:35;;;;;;;11.87;7.67;;;;;;;13.92;63.87;101314.28;5028009;28;20180;-73
2021/03/25 10:16:24;;;;;;;11.13;7.40;;;;;;;14.06;61.00;101315.34;5028113;28;20224;-72
2021/03/25 10:18:54;;;;;;;10.33;7.70;;;;;;;13.65;62.18;101321.16;5013112;28;20193;-71
2021/03/25 10:21:44;;;;;;;9.30;7.50;;;;;;;13.55;62.04;101315.69;5004848;28;20283;-71
2021/03/25 10:24:25;;;;;;;10.77;8.13;;;;;;;13.82;60.96;101308.00;5020259;28;20227;-69
2021/03/25 10:27:22;;;;;;;18.93;13.70;;;;;;;13.82;60.22;101305.28;4986845;28;20232;-73
2021/03/25 10:29:52;;;;;;;591.93;314.53;;;;;;;13.90;61.09;101308.28;4992688;28;21629;-72
2021/03/25 10:32:22;;;;;;;24.57;16.20;;;;;;;14.21;59.92;101313.34;4988402;28;20232;-72
2021/03/25 10:34:48;;;;;;;16.50;11.63;;;;;;;14.22;59.15;101309.53;4971366;28;20188;-71
2021/03/25 10:37:39;;;;;;;15.43;11.63;;;;;;;14.44;58.01;101312.72;4978689;28;20624;-71
2021/03/25 10:40:33;;;;;;;18.00;12.67;;;;;;;14.51;58.68;101308.56;4989195;28;20312;-72
2021/03/25 10:43:19;;;;;;;17.87;13.33;;;;;;;14.46;58.52;101303.13;4993876;28;20307;-72
2021/03/25 10:45:48;;;;;;;16.00;12.10;;;;;;;14.58;58.67;101298.16;4995166;28;20221;-71
2021/03/25 10:48:24;;;;;;;17.20;12.10;;;;;;;14.87;56.82;101301.75;4979477;28;20647;-73
2021/03/25 10:51:03;;;;;;;15.60;11.17;;;;;;;14.39;57.03;101299.06;4979940;28;20282;-76
2021/03/25 10:53:36;;;;;;;13.43;9.20;;;;;;;14.71;57.73;101298.31;5011391;28;20189;-76
2021/03/25 10:56:13;;;;;;;12.38;9.82;;;;;;;15.04;55.02;101292.88;4959164;28;20217;-76
2021/03/25 10:58:40;;;;;;;14.13;9.70;;;;;;;14.81;56.28;101291.97;4986493;28;20279;-73
2021/03/25 11:01:20;;;;;;;48.35;11.68;;;;;;;15.06;54.39;101289.84;4987436;28;20217;-75
2021/03/25 11:03:45;;;;;;;17.23;10.38;;;;;;;14.49;55.68;101286.16;4976831;28;20211;-75
2021/03/25 11:06:18;;;;;;;12.55;9.73;;;;;;;14.60;57.10;101274.06;4994936;28;20213;-74
2021/03/25 11:08:43;;;;;;;15.05;10.77;;;;;;;14.51;57.22;101275.75;4990384;28;20185;-76
2021/03/25 11:11:20;;;;;;;32.95;21.13;;;;;;;14.44;57.84;101269.78;4978179;28;20217;-74
2021/03/25 11:13:56;;;;;;;15.48;11.63;;;;;;;13.85;59.49;101275.50;5001261;28;20594;-76
2021/03/25 11:16:24;;;;;;;18.20;12.80;;;;;;;14.23;59.74;101266.63;5010776;28;20231;-74
2021/03/25 11:18:56;;;;;;;18.07;13.20;;;;;;;14.29;58.41;101275.34;4979003;28;20181;-69
2021/03/25 11:21:41;;;;;;;17.67;12.82;;;;;;;13.83;60.37;101269.50;4994766;28;20224;-71
2021/03/25 11:24:12;;;;;;;17.07;13.43;;;;;;;14.32;58.36;101263.84;4978619;28;20244;-69
2021/03/25 11:26:37;;;;;;;18.93;12.57;;;;;;;13.85;59.89;101264.59;4993180;28;20760;-69
2021/03/25 11:29:07;;;;;;;26.07;19.70;;;;;;;14.25;59.19;101266.06;4991593;28;20190;-70
2021/03/25 11:31:33;;;;;;;23.53;16.87;;;;;;;14.51;58.61;101264.81;4986653;28;20218;-70
2021/03/25 11:33:59;;;;;;;20.60;13.83;;;;;;;14.65;58.42;101258.44;5023612;28;20823;-70
2021/03/25 11:36:38;;;;;;;14.07;11.00;;;;;;;14.74;54.25;101269.56;4982361;28;20256;-70
2021/03/25 11:39:33;;;;;;;13.93;10.27;;;;;;;14.86;53.78;101259.09;5012534;28;20658;-71
2021/03/25 11:42:03;;;;;;;14.90;11.30;;;;;;;14.51;55.34;101264.81;5008643;28;20299;-70
2021/03/25 11:44:36;;;;;;;13.93;10.70;;;;;;;14.77;54.28;101266.28;4995365;28;20233;-70
2021/03/25 11:47:41;;;;;;;11.90;8.90;;;;;;;14.42;54.21;101261.03;4993437;28;20703;-70
2021/03/25 11:50:16;;;;;;;14.27;9.67;;;;;;;14.82;54.71;101261.59;5010555;28;20291;-70